createdAt,value
2017-06-21T00:00:17.407Z,19.70
2017-06-21T00:02:45.034Z,20.70
2017-06-21T00:05:12.569Z,19.37
2017-06-21T00:07:40.079Z,20.57
2017-06-21T00:10:07.801Z,19.30
2017-06-21T00:12:35.307Z,21.20
2017-06-21T00:15:02.833Z,19.90
2017-06-21T00:17:30.388Z,21.30
2017-06-21T00:19:57.903Z,19.80
2017-06-21T00:22:25.459Z,20.73
2017-06-21T00:24:53.038Z,20.90
2017-06-21T00:27:20.570Z,20.63
2017-06-21T00:29:48.075Z,21.90
2017-06-21T00:32:15.867Z,20.20
2017-06-21T00:34:43.373Z,21.63
2017-06-21T00:37:10.883Z,21.83
2017-06-21T00:39:38.479Z,21.60
2017-06-21T00:42:05.983Z,22.87
2017-06-21T00:44:33.489Z,18.87
2017-06-21T00:47:01.291Z,20.67
2017-06-21T00:49:28.799Z,21.80
2017-06-21T00:51:56.309Z,21.03
2017-06-21T00:54:24.264Z,22.00
2017-06-21T00:56:51.923Z,20.87
2017-06-21T00:59:19.432Z,20.43
2017-06-21T01:01:47.016Z,22.23
2017-06-21T01:04:14.523Z,22.20
2017-06-21T01:06:42.027Z,20.70
2017-06-21T01:09:09.911Z,20.80
2017-06-21T01:11:37.455Z,20.07
2017-06-21T01:14:04.968Z,21.60
2017-06-21T01:16:32.528Z,20.53
2017-06-21T01:19:00.065Z,19.90
2017-06-21T01:21:27.600Z,21.23
2017-06-21T01:23:55.195Z,20.33
2017-06-21T01:26:22.701Z,22.83
2017-06-21T01:28:50.207Z,21.20
2017-06-21T01:31:18.088Z,22.30
2017-06-21T01:33:45.596Z,21.50
2017-06-21T01:36:13.100Z,21.50
2017-06-21T01:38:40.708Z,20.60
2017-06-21T01:41:08.216Z,22.03
2017-06-21T01:43:35.731Z,21.63
2017-06-21T01:46:03.322Z,20.37
2017-06-21T01:48:30.875Z,20.40
2017-06-21T01:50:58.409Z,23.70
2017-06-21T01:53:25.971Z,22.30
2017-06-21T01:55:53.480Z,20.70
2017-06-21T01:58:20.995Z,22.00
2017-06-21T02:00:48.560Z,21.67
2017-06-21T02:03:16.084Z,21.27
2017-06-21T02:05:43.611Z,20.63
2017-06-21T02:08:11.503Z,23.47
2017-06-21T02:10:39.007Z,22.67
2017-06-21T02:13:06.516Z,21.83
2017-06-21T02:15:34.406Z,24.50
2017-06-21T02:18:01.921Z,23.67
2017-06-21T02:20:29.455Z,23.20
2017-06-21T02:22:57.132Z,22.03
2017-06-21T02:25:24.646Z,25.23
2017-06-21T02:27:52.203Z,22.70
2017-06-21T02:30:20.284Z,24.77
2017-06-21T02:32:47.792Z,24.67
2017-06-21T02:35:15.395Z,26.50
2017-06-21T02:37:43.023Z,24.07
2017-06-21T02:40:10.547Z,23.40
2017-06-21T02:42:38.059Z,24.77
2017-06-21T02:45:05.857Z,23.80
2017-06-21T02:47:33.367Z,23.43
2017-06-21T02:50:00.978Z,21.50
2017-06-21T02:52:28.551Z,25.27
2017-06-21T02:54:56.063Z,26.90
2017-06-21T02:57:24.475Z,24.77
2017-06-21T02:59:52.387Z,27.07
2017-06-21T03:02:19.895Z,24.93
2017-06-21T03:04:47.599Z,25.43
2017-06-21T03:07:17.055Z,26.30
2017-06-21T03:09:44.690Z,25.33
2017-06-21T03:12:12.386Z,28.27
2017-06-21T03:14:39.965Z,26.87
2017-06-21T03:17:07.474Z,23.87
2017-06-21T03:19:35.037Z,23.53
2017-06-21T03:22:02.610Z,26.27
2017-06-21T03:24:30.120Z,26.63
2017-06-21T03:26:57.627Z,24.63
2017-06-21T03:29:25.187Z,23.67
2017-06-21T03:31:52.686Z,23.90
2017-06-21T03:34:20.206Z,24.90
2017-06-21T03:36:48.110Z,24.40
2017-06-21T03:39:15.617Z,25.47
2017-06-21T03:41:43.132Z,26.53
2017-06-21T03:44:10.924Z,24.13
2017-06-21T03:46:38.430Z,24.80
2017-06-21T03:49:05.932Z,25.73
2017-06-21T03:51:33.637Z,25.53
2017-06-21T03:54:01.143Z,25.30
2017-06-21T03:56:28.655Z,25.57
2017-06-21T03:58:56.182Z,26.50
2017-06-21T04:01:23.733Z,27.00
2017-06-21T04:03:51.239Z,24.37
2017-06-21T04:06:19.195Z,24.37
2017-06-21T04:08:46.698Z,23.73
2017-06-21T04:11:14.198Z,22.80
2017-06-21T04:13:42.043Z,24.60
2017-06-21T04:16:09.547Z,25.00
2017-06-21T04:18:37.060Z,23.93
2017-06-21T04:21:04.879Z,22.60
2017-06-21T04:23:32.383Z,24.10
2017-06-21T04:25:59.907Z,24.20
2017-06-21T04:28:27.481Z,21.13
2017-06-21T04:30:55.027Z,19.57
2017-06-21T04:33:22.555Z,21.07
2017-06-21T04:35:50.114Z,20.47
2017-06-21T04:38:17.635Z,20.67
2017-06-21T04:40:45.240Z,20.40
2017-06-21T04:43:13.058Z,20.40
2017-06-21T04:45:40.615Z,21.83
2017-06-21T04:48:08.125Z,22.73
2017-06-21T04:50:35.691Z,20.70
2017-06-21T04:53:03.214Z,18.97
2017-06-21T04:55:30.751Z,21.50
2017-06-21T04:57:58.314Z,19.93
2017-06-21T05:00:25.822Z,19.23
2017-06-21T05:02:53.379Z,18.40
2017-06-21T05:05:20.939Z,19.30
2017-06-21T05:07:48.450Z,22.50
2017-06-21T05:10:15.983Z,19.80
2017-06-21T05:12:43.914Z,18.87
2017-06-21T05:15:11.423Z,19.20
2017-06-21T05:17:38.927Z,22.33
2017-06-21T05:20:06.776Z,20.87
2017-06-21T05:22:34.283Z,21.03
2017-06-21T05:25:01.791Z,21.30
2017-06-21T05:27:29.600Z,20.13
2017-06-21T05:29:58.039Z,20.90
2017-06-21T05:32:25.547Z,21.20
2017-06-21T05:34:53.078Z,20.07
2017-06-21T05:37:20.583Z,20.33
2017-06-21T05:39:48.095Z,21.73
2017-06-21T05:42:16.155Z,21.83
2017-06-21T05:44:44.531Z,21.90
2017-06-21T05:47:12.043Z,22.27
2017-06-21T05:49:39.548Z,21.30
2017-06-21T05:52:07.116Z,21.60
2017-06-21T05:54:34.706Z,18.87
2017-06-21T05:57:02.207Z,23.40
2017-06-21T05:59:29.751Z,24.63
2017-06-21T06:01:57.323Z,23.50
2017-06-21T06:04:24.970Z,23.47
2017-06-21T06:06:52.500Z,23.07
2017-06-21T06:09:20.011Z,23.50
2017-06-21T06:11:47.539Z,21.53
2017-06-21T06:14:15.338Z,23.30
2017-06-21T06:16:42.914Z,21.10
2017-06-21T06:19:10.459Z,22.30
2017-06-21T06:21:38.052Z,24.90
2017-06-21T06:24:05.554Z,21.00
2017-06-21T06:26:33.057Z,23.00
2017-06-21T06:29:00.615Z,22.83
2017-06-21T06:31:28.123Z,22.20
2017-06-21T06:33:55.675Z,22.33
2017-06-21T06:36:23.522Z,21.70
2017-06-21T06:38:51.027Z,21.83
2017-06-21T06:41:18.531Z,20.63
2017-06-21T06:43:46.511Z,20.93
2017-06-21T06:46:14.014Z,21.00
2017-06-21T06:48:41.523Z,23.87
2017-06-21T06:51:09.095Z,22.00
2017-06-21T06:53:36.606Z,23.20
2017-06-21T06:56:04.116Z,21.07
2017-06-21T06:58:31.662Z,22.23
2017-06-21T07:00:59.165Z,21.43
2017-06-21T07:03:26.728Z,22.40
2017-06-21T07:05:54.668Z,23.13
2017-06-21T07:08:22.180Z,22.93
2017-06-21T07:10:49.679Z,21.37
2017-06-21T07:13:17.254Z,24.90
2017-06-21T07:15:44.760Z,21.87
2017-06-21T07:18:12.262Z,22.90
2017-06-21T07:20:39.990Z,22.57
2017-06-21T07:23:07.503Z,23.07
2017-06-21T07:25:35.005Z,24.23
2017-06-21T07:28:02.608Z,22.70
2017-06-21T07:30:30.115Z,20.77
2017-06-21T07:32:57.630Z,22.97
2017-06-21T07:35:25.187Z,20.77
2017-06-21T07:37:52.695Z,23.83
2017-06-21T07:40:20.203Z,22.20
2017-06-21T07:42:47.934Z,23.20
2017-06-21T07:45:15.450Z,22.13
2017-06-21T07:47:43.018Z,22.33
2017-06-21T07:50:10.847Z,21.37
2017-06-21T07:52:38.365Z,20.67
2017-06-21T07:55:05.902Z,22.13
2017-06-21T07:57:33.454Z,24.33
2017-06-21T08:00:00.971Z,22.60
2017-06-21T08:02:28.483Z,20.50
2017-06-21T08:04:56.110Z,22.67
2017-06-21T08:07:23.615Z,20.73
2017-06-21T08:09:51.118Z,21.23
2017-06-21T08:12:18.818Z,23.13
2017-06-21T08:14:46.343Z,22.60
2017-06-21T08:17:13.902Z,22.83
2017-06-21T08:19:41.455Z,19.77
2017-06-21T08:22:08.963Z,21.33
2017-06-21T08:24:36.511Z,21.47
2017-06-21T08:27:04.090Z,22.30
2017-06-21T08:29:31.595Z,22.43
2017-06-21T08:31:59.120Z,22.10
2017-06-21T08:34:26.679Z,25.03
2017-06-21T08:36:54.232Z,26.03
2017-06-21T08:39:21.891Z,24.23
2017-06-21T08:41:49.857Z,26.30
2017-06-21T08:44:17.362Z,29.03
2017-06-21T08:46:44.875Z,25.57
2017-06-21T08:49:12.789Z,24.60
2017-06-21T08:51:40.292Z,25.17
2017-06-21T08:54:07.800Z,26.60
2017-06-21T08:56:35.355Z,26.50
2017-06-21T08:59:02.855Z,25.23
2017-06-21T09:01:30.359Z,25.87
2017-06-21T09:03:57.914Z,27.30
2017-06-21T09:06:25.607Z,25.63
2017-06-21T09:08:53.398Z,24.60
2017-06-21T09:11:20.923Z,24.60
2017-06-21T09:13:48.430Z,25.57
2017-06-21T09:16:16.254Z,25.37
2017-06-21T09:18:43.758Z,25.57
2017-06-21T09:21:11.273Z,28.50
2017-06-21T09:23:38.826Z,26.17
2017-06-21T09:26:06.331Z,24.23
2017-06-21T09:28:33.839Z,25.60
2017-06-21T09:31:01.699Z,24.80
2017-06-21T09:33:29.203Z,24.23
2017-06-21T09:35:56.715Z,25.20
2017-06-21T09:38:24.519Z,23.40
2017-06-21T09:40:52.025Z,24.53
2017-06-21T09:43:19.535Z,24.17
2017-06-21T09:45:47.106Z,22.50
2017-06-21T09:48:14.659Z,22.90
2017-06-21T09:50:42.179Z,22.40
2017-06-21T09:53:10.000Z,20.13
2017-06-21T09:55:37.515Z,19.10
2017-06-21T09:58:05.022Z,18.50
2017-06-21T10:00:32.899Z,17.53
2017-06-21T10:03:00.406Z,17.90
2017-06-21T10:05:27.910Z,17.67
2017-06-21T10:07:55.548Z,19.50
2017-06-21T10:10:23.122Z,21.43
2017-06-21T10:12:50.643Z,17.80
2017-06-21T10:15:18.522Z,17.80
2017-06-21T10:17:46.032Z,18.00
2017-06-21T10:20:13.578Z,17.37
2017-06-21T10:22:41.203Z,19.73
2017-06-21T10:25:08.788Z,19.80
2017-06-21T10:27:36.299Z,21.03
2017-06-21T10:30:03.907Z,19.10
2017-06-21T10:32:31.418Z,19.40
2017-06-21T10:34:59.322Z,17.90
2017-06-21T10:37:26.969Z,15.60
2017-06-21T10:39:54.491Z,16.87
2017-06-21T10:42:22.071Z,16.60
2017-06-21T10:44:49.892Z,16.30
2017-06-21T10:47:17.394Z,17.47
2017-06-21T10:49:44.902Z,18.60
2017-06-21T10:52:12.455Z,15.03
2017-06-21T10:54:39.955Z,16.00
2017-06-21T10:57:08.426Z,16.90
2017-06-21T10:59:35.978Z,17.43
2017-06-21T11:02:03.498Z,17.20
2017-06-21T11:04:31.022Z,17.20
2017-06-21T11:06:58.662Z,16.17
2017-06-21T11:09:26.167Z,16.30
2017-06-21T11:11:53.675Z,15.90
2017-06-21T11:14:21.502Z,16.20
2017-06-21T11:16:49.017Z,15.60
2017-06-21T11:19:16.534Z,14.33
2017-06-21T11:21:44.111Z,15.33
2017-06-21T11:24:11.664Z,14.83
2017-06-21T11:26:39.167Z,16.20
2017-06-21T11:29:06.722Z,16.20
2017-06-21T11:31:34.231Z,14.77
2017-06-21T11:34:01.739Z,16.10
2017-06-21T11:36:32.923Z,15.30
2017-06-21T11:39:00.434Z,14.20
2017-06-21T11:41:28.004Z,14.87
2017-06-21T11:43:55.558Z,15.70
2017-06-21T11:46:23.060Z,13.33
2017-06-21T11:48:50.568Z,14.43
2017-06-21T11:51:18.363Z,15.10
2017-06-21T11:53:45.870Z,13.67
2017-06-21T11:56:13.379Z,14.30
2017-06-21T11:58:41.378Z,14.30
2017-06-21T12:01:08.906Z,13.20
2017-06-21T12:03:36.415Z,13.40
2017-06-21T12:06:04.239Z,13.03
2017-06-21T12:08:31.743Z,13.37
2017-06-21T12:10:59.256Z,12.90
2017-06-21T12:13:26.815Z,12.00
2017-06-21T12:15:54.329Z,11.30
2017-06-21T12:18:21.848Z,11.67
2017-06-21T12:20:49.426Z,11.63
2017-06-21T12:23:16.930Z,11.10
2017-06-21T12:25:44.436Z,11.10
2017-06-21T12:28:12.266Z,11.70
2017-06-21T12:30:39.779Z,11.83
2017-06-21T12:33:07.280Z,12.23
2017-06-21T12:35:35.120Z,13.03
2017-06-21T12:38:02.754Z,13.70
2017-06-21T12:40:30.275Z,13.00
2017-06-21T12:42:57.837Z,13.67
2017-06-21T12:45:25.462Z,13.93
2017-06-21T12:47:52.982Z,12.77
2017-06-21T12:50:20.552Z,12.10
2017-06-21T12:52:48.062Z,12.60
2017-06-21T12:55:15.570Z,11.70
2017-06-21T12:57:43.227Z,12.10
2017-06-21T13:00:10.734Z,12.13
2017-06-21T13:02:38.318Z,12.30
2017-06-21T13:05:05.827Z,12.33
2017-06-21T13:07:33.335Z,11.77
2017-06-21T13:10:00.996Z,12.10
2017-06-21T13:12:28.504Z,13.47
2017-06-21T13:14:56.587Z,12.60
2017-06-21T13:17:24.512Z,12.53
2017-06-21T13:19:52.634Z,13.40
2017-06-21T13:22:20.352Z,12.90
2017-06-21T13:24:47.942Z,11.80
2017-06-21T13:27:15.447Z,13.07
2017-06-21T13:29:43.459Z,12.53
2017-06-21T13:32:11.071Z,12.73
2017-06-21T13:34:38.584Z,13.17
2017-06-21T13:37:06.143Z,12.97
2017-06-21T13:39:33.692Z,12.93
2017-06-21T13:42:01.299Z,12.70
2017-06-21T13:44:29.112Z,12.60
2017-06-21T13:46:56.619Z,13.03
2017-06-21T13:49:24.132Z,13.70
2017-06-21T13:51:51.683Z,13.00
2017-06-21T13:54:19.284Z,13.80
2017-06-21T13:56:46.795Z,14.40
2017-06-21T13:59:14.590Z,14.17
2017-06-21T14:01:42.090Z,14.50
2017-06-21T14:04:09.591Z,14.43
2017-06-21T14:06:37.155Z,14.30
2017-06-21T14:09:04.663Z,14.20
2017-06-21T14:11:32.175Z,14.80
2017-06-21T14:13:59.798Z,15.00
2017-06-21T14:16:27.305Z,14.80
2017-06-21T14:18:54.825Z,14.17
2017-06-21T14:21:22.580Z,14.50
2017-06-21T14:23:50.082Z,14.53
2017-06-21T14:26:17.590Z,14.23
2017-06-21T14:28:46.331Z,13.93
2017-06-21T14:31:13.835Z,15.90
2017-06-21T14:33:41.507Z,15.67
2017-06-21T14:36:09.062Z,15.00
2017-06-21T14:38:36.634Z,15.37
2017-06-21T14:41:04.139Z,13.77
2017-06-21T14:43:31.796Z,14.93
2017-06-21T14:45:59.303Z,16.17
2017-06-21T14:48:26.818Z,15.03
2017-06-21T14:50:54.703Z,14.30
2017-06-21T14:53:22.207Z,14.57
2017-06-21T14:55:49.715Z,14.70
2017-06-21T14:58:17.324Z,14.03
2017-06-21T15:00:45.187Z,13.67
2017-06-21T15:03:12.730Z,13.43
2017-06-21T15:05:40.700Z,15.13
2017-06-21T15:08:08.307Z,14.30
2017-06-21T15:10:35.827Z,13.70
2017-06-21T15:13:03.395Z,14.30
2017-06-21T15:15:31.044Z,14.10
2017-06-21T15:17:58.612Z,14.23
2017-06-21T15:20:26.179Z,14.50
2017-06-21T15:22:53.749Z,14.23
2017-06-21T15:25:21.336Z,14.80
2017-06-21T15:27:49.138Z,13.93
2017-06-21T15:30:16.704Z,14.23
2017-06-21T15:32:44.266Z,13.13
2017-06-21T15:35:11.835Z,13.33
2017-06-21T15:37:39.367Z,13.20
2017-06-21T15:40:07.007Z,12.77
2017-06-21T15:42:34.567Z,13.30
2017-06-21T15:45:02.244Z,14.00
2017-06-21T15:47:29.754Z,13.40
2017-06-21T15:49:57.312Z,13.73
2017-06-21T15:52:24.828Z,14.27
2017-06-21T15:54:52.342Z,14.10
2017-06-21T15:57:19.926Z,13.50
2017-06-21T15:59:47.434Z,14.57
2017-06-21T16:02:14.948Z,13.13
2017-06-21T16:04:42.503Z,13.80
2017-06-21T16:07:11.466Z,13.20
2017-06-21T16:09:39.386Z,12.93
2017-06-21T16:12:07.786Z,12.20
2017-06-21T16:14:35.888Z,12.50
2017-06-21T16:17:03.396Z,12.47
2017-06-21T16:19:30.913Z,12.60
2017-06-21T16:21:58.665Z,12.57
2017-06-21T16:24:26.175Z,12.80
2017-06-21T16:26:53.683Z,13.20
2017-06-21T16:29:21.627Z,12.87
2017-06-21T16:31:49.257Z,13.70
2017-06-21T16:34:16.762Z,12.70
2017-06-21T16:36:44.602Z,11.90
2017-06-21T16:39:12.130Z,12.37
2017-06-21T16:41:39.635Z,12.13
2017-06-21T16:44:07.384Z,12.60
2017-06-21T16:46:34.886Z,11.70
2017-06-21T16:49:02.690Z,11.73
2017-06-21T16:51:30.240Z,11.93
2017-06-21T16:53:57.746Z,12.30
2017-06-21T16:56:25.247Z,12.20
2017-06-21T16:58:53.064Z,10.97
2017-06-21T17:01:20.567Z,11.53
2017-06-21T17:03:48.071Z,11.90
2017-06-21T17:06:15.631Z,11.53
2017-06-21T17:08:43.183Z,11.10
2017-06-21T17:11:10.749Z,11.40
2017-06-21T17:13:38.559Z,11.10
2017-06-21T17:16:06.063Z,12.50
2017-06-21T17:18:33.571Z,11.57
2017-06-21T17:21:01.116Z,10.80
2017-06-21T17:23:28.620Z,11.90
2017-06-21T17:25:56.171Z,10.93
2017-06-21T17:28:23.722Z,11.27
2017-06-21T17:30:51.231Z,10.83
2017-06-21T17:33:18.744Z,11.10
2017-06-21T17:35:46.461Z,10.93
2017-06-21T17:38:13.968Z,10.60
2017-06-21T17:40:41.492Z,11.57
2017-06-21T17:43:09.291Z,11.37
2017-06-21T17:45:36.796Z,10.73
2017-06-21T17:48:04.320Z,10.37
2017-06-21T17:50:31.987Z,10.73
2017-06-21T17:53:00.366Z,11.33
2017-06-21T17:55:27.871Z,10.67
2017-06-21T17:57:55.703Z,10.30
2017-06-21T18:00:23.208Z,11.00
2017-06-21T18:02:50.714Z,10.93
2017-06-21T18:05:18.540Z,10.40
2017-06-21T18:07:46.042Z,10.33
2017-06-21T18:10:13.562Z,10.30
2017-06-21T18:12:41.589Z,11.30
2017-06-21T18:15:09.099Z,11.10
2017-06-21T18:17:36.931Z,11.17
2017-06-21T18:20:04.495Z,10.50
2017-06-21T18:22:32.063Z,10.50
2017-06-21T18:24:59.708Z,11.73
2017-06-21T18:27:27.611Z,10.93
2017-06-21T18:29:55.747Z,9.67
2017-06-21T18:32:23.282Z,9.90
2017-06-21T18:34:50.868Z,10.57
2017-06-21T18:37:18.399Z,10.00
2017-06-21T18:39:45.914Z,10.50
2017-06-21T18:42:13.735Z,10.30
2017-06-21T18:44:41.244Z,10.70
2017-06-21T18:47:08.755Z,10.00
2017-06-21T18:49:36.548Z,9.53
2017-06-21T18:52:04.051Z,9.50
2017-06-21T18:54:31.634Z,10.67
2017-06-21T18:56:59.194Z,10.27
2017-06-21T18:59:26.730Z,10.07
2017-06-21T19:01:54.239Z,10.87
2017-06-21T19:04:22.130Z,11.20
2017-06-21T19:06:49.790Z,10.50
2017-06-21T19:09:17.751Z,10.37
2017-06-21T19:11:45.316Z,11.30
2017-06-21T19:14:12.951Z,11.70
2017-06-21T19:16:40.547Z,10.67
2017-06-21T19:19:08.111Z,10.87
2017-06-21T19:21:35.625Z,12.30
2017-06-21T19:24:03.190Z,12.40
2017-06-21T19:26:30.735Z,12.60
2017-06-21T19:28:58.894Z,11.10
2017-06-21T19:31:26.419Z,11.53
2017-06-21T19:33:53.973Z,11.60
2017-06-21T19:36:21.489Z,11.20
2017-06-21T19:38:49.610Z,11.63
2017-06-21T19:41:17.195Z,12.33
2017-06-21T19:43:44.702Z,12.40
2017-06-21T19:46:12.340Z,13.50
2017-06-21T19:48:39.908Z,11.63
2017-06-21T19:51:07.563Z,11.90
2017-06-21T19:53:35.110Z,11.40
2017-06-21T19:56:03.003Z,11.83
2017-06-21T19:58:30.502Z,12.77
2017-06-21T20:00:58.021Z,12.77
2017-06-21T20:03:25.868Z,12.90
2017-06-21T20:05:53.379Z,12.80
2017-06-21T20:08:20.883Z,13.03
2017-06-21T20:10:48.574Z,13.03
2017-06-21T20:13:16.083Z,13.23
2017-06-21T20:15:43.588Z,12.87
2017-06-21T20:18:11.187Z,13.60
2017-06-21T20:20:38.701Z,12.90
2017-06-21T20:23:06.263Z,13.23
2017-06-21T20:25:34.163Z,13.33
2017-06-21T20:28:02.239Z,13.63
2017-06-21T20:30:30.087Z,14.67
2017-06-21T20:32:57.783Z,15.00
2017-06-21T20:35:25.295Z,13.40
2017-06-21T20:37:53.135Z,13.00
2017-06-21T20:40:20.642Z,13.73
2017-06-21T20:42:48.146Z,13.30
2017-06-21T20:45:15.955Z,12.70
2017-06-21T20:47:43.462Z,14.60
2017-06-21T20:50:11.126Z,15.20
2017-06-21T20:52:38.686Z,15.93
2017-06-21T20:55:06.380Z,14.93
2017-06-21T20:57:33.904Z,15.47
2017-06-21T21:00:01.883Z,14.47
2017-06-21T21:02:29.699Z,17.20
2017-06-21T21:04:57.930Z,15.17
2017-06-21T21:07:25.473Z,14.97
2017-06-21T21:09:53.191Z,12.50
2017-06-21T21:12:21.128Z,12.93
2017-06-21T21:14:48.639Z,15.20
2017-06-21T21:17:16.146Z,15.80
2017-06-21T21:19:44.118Z,13.47
2017-06-21T21:22:12.591Z,14.23
2017-06-21T21:24:40.547Z,14.47
2017-06-21T21:27:08.058Z,15.23
2017-06-21T21:29:35.567Z,15.63
2017-06-21T21:32:03.911Z,15.80
2017-06-21T21:34:31.434Z,15.73
2017-06-21T21:36:58.998Z,14.60
2017-06-21T21:39:26.789Z,15.10
2017-06-21T21:41:54.359Z,15.30
2017-06-21T21:44:21.870Z,14.70
2017-06-21T21:46:49.667Z,14.60
2017-06-21T21:49:17.170Z,15.67
2017-06-21T21:51:44.691Z,14.90
2017-06-21T21:54:12.507Z,16.00
2017-06-21T21:56:40.012Z,16.20
2017-06-21T21:59:07.522Z,17.53
2017-06-21T22:01:35.110Z,15.50
2017-06-21T22:04:02.671Z,15.40
2017-06-21T22:06:30.456Z,15.67
2017-06-21T22:08:58.056Z,16.53
2017-06-21T22:11:25.562Z,16.63
2017-06-21T22:13:53.071Z,16.63
2017-06-21T22:16:21.218Z,15.97
2017-06-21T22:18:48.727Z,16.10
2017-06-21T22:21:16.236Z,16.97
2017-06-21T22:23:43.802Z,15.90
2017-06-21T22:26:11.974Z,15.83
2017-06-21T22:28:39.479Z,16.57
2017-06-21T22:31:07.364Z,16.07
2017-06-21T22:33:34.867Z,16.77
2017-06-21T22:36:02.380Z,16.17
2017-06-21T22:38:29.983Z,16.00
2017-06-21T22:40:57.491Z,16.80
2017-06-21T22:43:24.998Z,17.07
2017-06-21T22:45:52.828Z,16.63
2017-06-21T22:48:20.359Z,16.13
2017-06-21T22:50:47.863Z,16.40
2017-06-21T22:53:15.406Z,15.90
2017-06-21T22:55:42.946Z,16.97
2017-06-21T22:58:10.467Z,17.80
2017-06-21T23:00:38.026Z,18.33
2017-06-21T23:03:05.538Z,17.80
2017-06-21T23:05:33.046Z,18.33
2017-06-21T23:08:00.670Z,18.43
2017-06-21T23:10:28.179Z,18.77
2017-06-21T23:12:55.696Z,17.97
2017-06-21T23:15:23.251Z,19.00
2017-06-21T23:17:50.798Z,18.20
2017-06-21T23:20:18.339Z,18.80
2017-06-21T23:22:45.911Z,19.00
2017-06-21T23:25:13.475Z,17.17
2017-06-21T23:27:40.983Z,18.47
2017-06-21T23:30:08.639Z,17.43
2017-06-21T23:32:36.144Z,16.63
2017-06-21T23:35:03.663Z,17.90
2017-06-21T23:37:31.215Z,17.93
2017-06-21T23:39:58.762Z,20.20
2017-06-21T23:42:26.306Z,17.37
2017-06-21T23:44:53.881Z,17.07
2017-06-21T23:47:21.402Z,18.07
2017-06-21T23:49:48.930Z,18.33
2017-06-21T23:52:16.724Z,18.37
2017-06-21T23:54:44.231Z,18.67
2017-06-21T23:57:11.730Z,18.97
2017-06-21T23:59:39.331Z,18.93
